Time;durP1;ratioP1;P1;durP2;ratioP2;P2;SDS_P1;SDS_P2;PMS_P1;PMS_P2;Temp;Humidity;BMP_temperature;BMP_pressure;BME280_temperature;BME280_humidity;BME280_pressure;Samples;Min_cycle;Max_cycle;Signal;HPM_P1;HPM_P2
2021/01/23 07:34:35;;;;;;;;;0.00;0.00;;;;;;;;432678;22;89053;-86
2021/01/23 07:35:24;;;;;;;;;0.00;0.00;;;;;;;;1521699;28;89681;-91
2021/01/23 07:36:09;;;;;;;;;0.20;0.20;;;;;;;;1523789;28;89217;-91
2021/01/23 07:36:54;;;;;;;;;0.25;0.25;;;;;;;;1525944;28;90316;-91
2021/01/23 07:37:48;;;;;;;;;0.50;0.50;;;;;;;;1521873;28;90222;-91
2021/01/23 07:38:33;;;;;;;;;1.00;0.60;;;;;;;;1517675;28;90342;-91
2021/01/23 07:39:19;;;;;;;;;0.00;0.00;;;;;;;;1515047;28;88532;-91
2021/01/23 07:40:05;;;;;;;;;0.00;0.00;;;;;;;;1514238;28;89641;-90
2021/01/23 07:40:55;;;;;;;;;0.00;0.00;;;;;;;;1517904;28;89051;-90
2021/01/23 07:41:46;;;;;;;;;0.00;0.00;;;;;;;;1514022;28;88194;-91
2021/01/23 07:42:31;;;;;;;;;0.00;0.00;;;;;;;;1515200;28;88057;-90
2021/01/23 07:43:19;;;;;;;;;0.00;0.00;;;;;;;;1514615;28;86846;-91
2021/01/23 07:44:08;;;;;;;;;0.80;0.80;;;;;;;;1520202;28;87072;-92
2021/01/23 07:44:53;;;;;;;;;0.00;0.00;;;;;;;;1517859;28;87044;-91
2021/01/23 07:45:39;;;;;;;;;0.00;0.00;;;;;;;;1520165;28;87164;-91
2021/01/23 07:46:24;;;;;;;;;0.00;0.00;;;;;;;;1526221;28;87018;-90
2021/01/23 07:47:12;;;;;;;;;0.75;0.75;;;;;;;;1523955;28;86853;-90
2021/01/23 07:48:07;;;;;;;;;0.00;0.00;;;;;;;;1517976;28;86341;-92
2021/01/23 07:48:53;;;;;;;;;0.20;0.20;;;;;;;;1517823;28;87095;-91
2021/01/23 07:49:38;;;;;;;;;0.00;0.00;;;;;;;;1511746;28;87089;-90
2021/01/23 07:50:23;;;;;;;;;1.00;0.00;;;;;;;;1511691;28;87869;-90
2021/01/23 07:51:20;;;;;;;;;2.75;0.00;;;;;;;;1507884;28;87031;-90
2021/01/23 07:52:06;;;;;;;;;2.00;1.00;;;;;;;;1515340;28;87791;-90
2021/01/23 07:52:52;;;;;;;;;3.00;0.00;;;;;;;;1517768;28;87077;-90
2021/01/23 07:53:37;;;;;;;;;1.00;0.00;;;;;;;;1517710;28;86990;-91
2021/01/23 07:54:22;;;;;;;;;0.00;0.00;;;;;;;;1512013;28;86982;-90
2021/01/23 07:55:08;;;;;;;;;0.00;0.00;;;;;;;;1512140;28;86992;-89
2021/01/23 07:55:53;;;;;;;;;0.00;0.00;;;;;;;;1510385;28;87168;-91
2021/01/23 07:56:52;;;;;;;;;0.00;0.00;;;;;;;;1515118;28;87054;-90
2021/01/23 07:57:37;;;;;;;;;0.00;0.00;;;;;;;;1521531;28;87151;-91
2021/01/23 07:58:22;;;;;;;;;1.00;1.00;;;;;;;;1520343;28;87592;-91
2021/01/23 07:59:08;;;;;;;;;0.00;0.00;;;;;;;;1525595;28;87183;-90
2021/01/23 07:59:53;;;;;;;;;0.00;0.00;;;;;;;;1523836;28;86854;-90
2021/01/23 08:00:39;;;;;;;;;0.50;0.00;;;;;;;;1521771;28;87090;-91
2021/01/23 08:01:24;;;;;;;;;1.50;0.00;;;;;;;;1521822;28;87342;-91
2021/01/23 08:02:10;;;;;;;;;0.00;0.00;;;;;;;;1520057;28;87097;-91
2021/01/23 08:02:55;;;;;;;;;0.00;0.00;;;;;;;;1514287;28;87044;-91
2021/01/23 08:03:40;;;;;;;;;0.00;0.00;;;;;;;;1514781;28;86449;-92
2021/01/23 08:04:32;;;;;;;;;0.00;0.00;;;;;;;;1523010;28;87090;-91
2021/01/23 08:05:18;;;;;;;;;0.60;0.60;;;;;;;;1518182;28;88894;-92
2021/01/23 08:06:03;;;;;;;;;0.25;0.00;;;;;;;;1520703;28;89455;-91
2021/01/23 08:06:49;;;;;;;;;1.00;0.00;;;;;;;;1525621;28;89944;-91
2021/01/23 08:07:41;;;;;;;;;0.00;0.00;;;;;;;;1529881;28;88586;-92
2021/01/23 08:08:30;;;;;;;;;1.80;1.00;;;;;;;;1521157;28;90056;-92
2021/01/23 08:09:18;;;;;;;;;0.00;0.00;;;;;;;;1518197;28;90133;-91
2021/01/23 08:10:10;;;;;;;;;0.00;0.00;;;;;;;;1515281;28;90573;-91
2021/01/23 08:10:56;;;;;;;;;0.40;0.00;;;;;;;;1515370;28;89425;-91
2021/01/23 08:11:41;;;;;;;;;0.20;0.20;;;;;;;;1518138;28;87831;-91
2021/01/23 08:12:27;;;;;;;;;0.75;0.75;;;;;;;;1508123;28;89530;-91
2021/01/23 08:13:12;;;;;;;;;1.00;1.00;;;;;;;;1507941;28;90477;-90
2021/01/23 08:14:05;;;;;;;;;1.50;0.00;;;;;;;;1514730;28;89847;-90
2021/01/23 08:14:51;;;;;;;;;0.80;0.80;;;;;;;;1514775;28;91033;-92
2021/01/23 08:15:37;;;;;;;;;0.00;0.00;;;;;;;;1514718;28;89248;-91
2021/01/23 08:16:22;;;;;;;;;0.00;0.00;;;;;;;;1516541;28;88657;-91
2021/01/23 08:17:07;;;;;;;;;0.00;0.00;;;;;;;;1519497;28;89082;-91
2021/01/23 08:17:53;;;;;;;;;1.75;1.00;;;;;;;;1517755;28;88643;-91
2021/01/23 08:18:39;;;;;;;;;1.25;1.25;;;;;;;;1519561;28;90065;-90
2021/01/23 08:19:24;;;;;;;;;0.00;0.00;;;;;;;;1517714;28;88999;-90
2021/01/23 08:20:10;;;;;;;;;0.00;0.00;;;;;;;;1517609;28;88354;-90
2021/01/23 08:20:55;;;;;;;;;2.00;0.20;;;;;;;;1513610;28;90038;-91
2021/01/23 08:21:40;;;;;;;;;1.00;1.00;;;;;;;;1513685;28;88355;-92
2021/01/23 08:22:26;;;;;;;;;1.00;1.00;;;;;;;;1517631;28;91353;-90
2021/01/23 08:23:12;;;;;;;;;1.00;0.25;;;;;;;;1513635;28;88583;-92
2021/01/23 08:23:57;;;;;;;;;0.60;0.60;;;;;;;;1513773;28;88757;-90
2021/01/23 08:24:42;;;;;;;;;0.00;0.00;;;;;;;;1519542;28;89224;-91
2021/01/23 08:25:28;;;;;;;;;0.00;0.00;;;;;;;;1519507;28;88857;-90
2021/01/23 08:26:14;;;;;;;;;1.00;1.00;;;;;;;;1520475;28;90432;-91
2021/01/23 08:27:01;;;;;;;;;0.00;0.00;;;;;;;;1513855;28;88668;-93
2021/01/23 08:27:46;;;;;;;;;0.00;0.00;;;;;;;;1517282;28;89122;-91
2021/01/23 08:28:32;;;;;;;;;0.50;0.50;;;;;;;;1513648;28;90296;-90
2021/01/23 08:29:22;;;;;;;;;1.00;1.00;;;;;;;;1519244;28;91471;-90
2021/01/23 08:30:08;;;;;;;;;0.40;0.40;;;;;;;;1519685;28;89682;-90
2021/01/23 08:30:53;;;;;;;;;2.80;1.00;;;;;;;;1523094;28;90303;-90
2021/01/23 08:31:42;;;;;;;;;0.50;0.50;;;;;;;;1520930;28;89861;-90
2021/01/23 08:32:28;;;;;;;;;0.20;0.20;;;;;;;;1523542;28;87782;-89
2021/01/23 08:33:13;;;;;;;;;0.75;0.75;;;;;;;;1519987;28;88591;-89
2021/01/23 08:33:58;;;;;;;;;1.00;0.00;;;;;;;;1519470;28;89177;-88
2021/01/23 08:34:44;;;;;;;;;0.00;0.00;;;;;;;;1523290;28;88620;-89
2021/01/23 08:35:30;;;;;;;;;0.60;0.60;;;;;;;;1519538;28;89908;-89
2021/01/23 08:36:15;;;;;;;;;1.60;1.00;;;;;;;;1519712;28;89859;-90
2021/01/23 08:37:02;;;;;;;;;0.00;0.00;;;;;;;;1519719;28;89645;-89
2021/01/23 08:37:47;;;;;;;;;0.00;0.00;;;;;;;;1525761;28;89443;-89
2021/01/23 08:38:33;;;;;;;;;2.00;0.50;;;;;;;;1529367;28;88924;-89
2021/01/23 08:39:18;;;;;;;;;0.00;0.00;;;;;;;;1523975;28;88768;-91
2021/01/23 08:40:08;;;;;;;;;0.00;0.00;;;;;;;;1523465;28;90044;-91
2021/01/23 08:40:53;;;;;;;;;1.00;0.00;;;;;;;;1529246;28;88046;-92
2021/01/23 08:41:42;;;;;;;;;0.00;0.00;;;;;;;;1525964;28;89040;-92
2021/01/23 08:42:36;;;;;;;;;1.00;1.00;;;;;;;;1528826;28;90053;-92
2021/01/23 08:43:30;;;;;;;;;1.00;1.00;;;;;;;;1523302;28;88727;-91
2021/01/23 08:44:15;;;;;;;;;1.40;0.60;;;;;;;;1523171;28;88015;-90
2021/01/23 08:45:01;;;;;;;;;1.00;1.00;;;;;;;;1521322;28;90473;-91
2021/01/23 08:45:51;;;;;;;;;1.00;1.00;;;;;;;;1521550;28;88678;-91
2021/01/23 08:46:51;;;;;;;;;0.60;0.60;;;;;;;;1521214;28;88148;-91
2021/01/23 08:47:36;;;;;;;;;0.00;0.00;;;;;;;;1528047;28;89443;-91
2021/01/23 08:48:22;;;;;;;;;1.00;1.00;;;;;;;;1523367;28;89104;-90
2021/01/23 08:49:07;;;;;;;;;1.00;1.00;;;;;;;;1521652;28;90065;-90
2021/01/23 08:49:52;;;;;;;;;1.50;1.50;;;;;;;;1519035;28;87208;-91
2021/01/23 08:50:38;;;;;;;;;2.25;0.75;;;;;;;;1525365;28;86470;-91
2021/01/23 08:51:24;;;;;;;;;2.25;1.00;;;;;;;;1523024;28;88109;-91
2021/01/23 08:52:09;;;;;;;;;0.00;0.00;;;;;;;;1525401;28;87167;-91
2021/01/23 08:52:57;;;;;;;;;0.00;0.00;;;;;;;;1529019;28;87988;-91
2021/01/23 08:53:42;;;;;;;;;0.00;0.00;;;;;;;;1529205;28;86675;-91
2021/01/23 08:54:29;;;;;;;;;0.00;0.00;;;;;;;;1527755;28;86915;-90
2021/01/23 08:55:15;;;;;;;;;1.60;0.60;;;;;;;;1522532;28;87078;-90
2021/01/23 08:56:02;;;;;;;;;1.00;1.00;;;;;;;;1519635;28;87177;-91
2021/01/23 08:56:48;;;;;;;;;0.40;0.40;;;;;;;;1523341;28;87141;-90
2021/01/23 08:57:36;;;;;;;;;1.00;1.00;;;;;;;;1517525;28;86771;-91
2021/01/23 08:58:21;;;;;;;;;1.00;0.80;;;;;;;;1520204;28;86415;-90
2021/01/23 08:59:08;;;;;;;;;0.25;0.25;;;;;;;;1523104;28;87247;-91
2021/01/23 08:59:54;;;;;;;;;1.40;1.00;;;;;;;;1529084;28;87052;-90
2021/01/23 09:00:41;;;;;;;;;2.75;1.25;;;;;;;;1532988;28;88214;-91
2021/01/23 09:01:27;;;;;;;;;0.20;0.20;;;;;;;;1523477;28;87030;-91
2021/01/23 09:02:14;;;;;;;;;0.75;0.75;;;;;;;;1520925;28;87095;-90
2021/01/23 09:03:00;;;;;;;;;1.80;1.60;;;;;;;;1513643;28;86992;-90
2021/01/23 09:03:45;;;;;;;;;0.80;0.80;;;;;;;;1513647;28;87073;-91
2021/01/23 09:04:30;;;;;;;;;1.25;1.25;;;;;;;;1519370;28;87057;-91
2021/01/23 09:05:16;;;;;;;;;2.50;1.00;;;;;;;;1525147;28;87066;-90
2021/01/23 09:06:02;;;;;;;;;1.25;1.25;;;;;;;;1521365;28;86397;-91
2021/01/23 09:06:47;;;;;;;;;1.00;1.00;;;;;;;;1519173;28;87052;-91
2021/01/23 09:07:33;;;;;;;;;1.00;1.00;;;;;;;;1523312;28;86878;-91
2021/01/23 09:08:18;;;;;;;;;0.00;0.00;;;;;;;;1525055;28;87992;-91
2021/01/23 09:09:04;;;;;;;;;0.00;0.00;;;;;;;;1521165;28;87134;-90
2021/01/23 09:09:50;;;;;;;;;0.00;0.00;;;;;;;;1523049;28;87125;-91
2021/01/23 09:10:35;;;;;;;;;2.25;1.00;;;;;;;;1527222;28;87092;-91
2021/01/23 09:11:20;;;;;;;;;2.00;0.75;;;;;;;;1519225;28;90233;-91
2021/01/23 09:12:06;;;;;;;;;1.00;1.00;;;;;;;;1525015;28;88821;-90
2021/01/23 09:12:51;;;;;;;;;0.50;0.50;;;;;;;;1525133;28;88417;-90
2021/01/23 09:13:44;;;;;;;;;2.00;2.00;;;;;;;;1528935;28;90897;-90
2021/01/23 09:14:29;;;;;;;;;2.40;1.00;;;;;;;;1527486;28;89549;-90
2021/01/23 09:15:14;;;;;;;;;1.50;1.50;;;;;;;;1529206;28;90008;-90
2021/01/23 09:16:00;;;;;;;;;1.00;1.00;;;;;;;;1522711;28;89178;-90
2021/01/23 09:16:45;;;;;;;;;2.00;2.00;;;;;;;;1524987;28;91093;-91
2021/01/23 09:17:30;;;;;;;;;0.75;0.75;;;;;;;;1524208;28;88032;-91
2021/01/23 09:18:15;;;;;;;;;1.00;1.00;;;;;;;;1526003;28;88473;-92
2021/01/23 09:19:01;;;;;;;;;3.00;1.00;;;;;;;;1530443;28;89009;-90
2021/01/23 09:19:46;;;;;;;;;2.50;2.00;;;;;;;;1533053;28;90149;-90
2021/01/23 09:20:31;;;;;;;;;1.00;1.00;;;;;;;;1533204;28;89078;-91
2021/01/23 09:21:17;;;;;;;;;1.00;1.00;;;;;;;;1533491;28;89205;-91
2021/01/23 09:22:02;;;;;;;;;0.75;0.75;;;;;;;;1526746;28;88382;-90
2021/01/23 09:22:47;;;;;;;;;3.50;1.75;;;;;;;;1529859;28;88841;-92
2021/01/23 09:23:33;;;;;;;;;2.00;1.00;;;;;;;;1525642;28;90132;-91
2021/01/23 09:24:18;;;;;;;;;2.00;2.00;;;;;;;;1521018;28;89960;-92
2021/01/23 09:25:04;;;;;;;;;2.00;2.00;;;;;;;;1518627;28;90414;-91
2021/01/23 09:25:49;;;;;;;;;2.00;2.00;;;;;;;;1523125;28;89964;-90
2021/01/23 09:26:34;;;;;;;;;1.75;1.00;;;;;;;;1523140;28;88993;-90
2021/01/23 09:27:20;;;;;;;;;2.00;2.00;;;;;;;;1516909;28;88521;-90
2021/01/23 09:28:05;;;;;;;;;2.50;1.50;;;;;;;;1513037;28;90146;-91
2021/01/23 09:28:50;;;;;;;;;1.00;1.00;;;;;;;;1513213;28;90300;-90
2021/01/23 09:29:36;;;;;;;;;1.00;1.00;;;;;;;;1521295;28;89119;-92
2021/01/23 09:30:42;;;;;;;;;2.25;1.25;;;;;;;;1523344;28;90486;-92
2021/01/23 09:31:35;;;;;;;;;2.20;1.80;;;;;;;;1523752;28;88639;-92
2021/01/23 09:32:32;;;;;;;;;2.60;1.60;;;;;;;;1523107;28;90850;-93
2021/01/23 09:33:56;;;;;;;;;2.40;2.40;;;;;;;;1525869;28;90715;-93
2021/01/23 09:36:05;;;;;;;;;5.40;2.00;;;;;;;;1514478;28;86685;-92
2021/01/23 09:38:15;;;;;;;;;2.60;2.60;;;;;;;;1512992;28;87062;-91
2021/01/23 09:39:08;;;;;;;;;5.00;3.00;;;;;;;;1516149;28;88242;-93
2021/01/23 09:40:21;;;;;;;;;6.80;3.00;;;;;;;;1510899;29;90435;-92
2021/01/23 09:41:16;;;;;;;;;1.60;1.60;;;;;;;;1503169;29;89475;-92
2021/01/23 09:42:04;;;;;;;;;1.00;1.00;;;;;;;;1499592;29;91383;-94
2021/01/23 09:43:40;;;;;;;;;4.80;3.00;;;;;;;;1499123;29;87660;-94
2021/01/23 09:44:28;;;;;;;;;5.00;3.00;;;;;;;;1476634;29;87811;-92
2021/01/23 09:45:19;;;;;;;;;1.20;1.00;;;;;;;;1475931;29;90664;-92
2021/01/23 09:46:04;;;;;;;;;3.40;1.40;;;;;;;;1470868;29;90910;-89
2021/01/23 09:46:50;;;;;;;;;4.00;4.00;;;;;;;;1468863;29;89546;-89
2021/01/23 09:47:38;;;;;;;;;1.00;1.00;;;;;;;;1467433;29;90810;-89
2021/01/23 09:48:23;;;;;;;;;6.00;4.00;;;;;;;;1471484;29;90407;-90
2021/01/23 09:49:08;;;;;;;;;3.50;2.00;;;;;;;;1471421;29;89002;-91
2021/01/23 09:49:54;;;;;;;;;2.00;2.00;;;;;;;;1468917;29;90803;-90
2021/01/23 09:50:59;;;;;;;;;2.00;1.00;;;;;;;;1472745;29;89990;-91
2021/01/23 09:52:05;;;;;;;;;2.20;2.20;;;;;;;;1461170;29;89432;-92
2021/01/23 09:52:51;;;;;;;;;1.00;1.00;;;;;;;;1465827;29;90029;-91
2021/01/23 09:53:36;;;;;;;;;2.00;2.00;;;;;;;;1471460;29;88924;-91
2021/01/23 09:54:21;;;;;;;;;3.00;1.50;;;;;;;;1474861;29;87788;-91
2021/01/23 09:55:10;;;;;;;;;2.00;1.50;;;;;;;;1470990;29;89974;-91
2021/01/23 09:56:21;;;;;;;;;3.60;1.60;;;;;;;;1464022;29;87133;-92
2021/01/23 09:57:07;;;;;;;;;4.60;2.60;;;;;;;;1468328;29;88054;-89
2021/01/23 09:57:52;;;;;;;;;1.00;1.00;;;;;;;;1470548;29;90438;-92
2021/01/23 09:58:37;;;;;;;;;1.25;1.25;;;;;;;;1471408;29;90866;-91
2021/01/23 09:59:23;;;;;;;;;3.00;3.00;;;;;;;;1467895;29;90481;-90
2021/01/23 10:00:08;;;;;;;;;2.50;1.50;;;;;;;;1469151;29;87373;-90
2021/01/23 10:01:03;;;;;;;;;3.00;1.50;;;;;;;;1476264;29;87016;-93
2021/01/23 10:01:48;;;;;;;;;2.00;1.80;;;;;;;;1479555;29;87254;-90
2021/01/23 10:02:35;;;;;;;;;1.25;1.25;;;;;;;;1478423;29;87065;-93
2021/01/23 10:03:21;;;;;;;;;2.40;2.00;;;;;;;;1474911;29;87006;-90
2021/01/23 10:04:08;;;;;;;;;2.00;1.00;;;;;;;;1469207;29;87083;-91
2021/01/23 10:04:53;;;;;;;;;1.00;1.00;;;;;;;;1468726;29;86251;-91
2021/01/23 10:05:38;;;;;;;;;1.00;1.00;;;;;;;;1474466;29;86984;-91
2021/01/23 10:06:24;;;;;;;;;1.25;1.25;;;;;;;;1482129;29;87231;-90
2021/01/23 10:07:09;;;;;;;;;3.00;2.25;;;;;;;;1488342;29;87991;-91
2021/01/23 10:07:54;;;;;;;;;1.25;1.00;;;;;;;;1487926;29;87193;-92
2021/01/23 10:08:40;;;;;;;;;0.00;0.00;;;;;;;;1484047;29;87084;-91
2021/01/23 10:09:26;;;;;;;;;2.00;2.00;;;;;;;;1481874;29;87235;-91
2021/01/23 10:10:11;;;;;;;;;0.00;0.00;;;;;;;;1478152;29;86989;-92
2021/01/23 10:10:56;;;;;;;;;1.25;1.00;;;;;;;;1484549;29;86973;-91
2021/01/23 10:11:41;;;;;;;;;0.00;0.00;;;;;;;;1487700;29;87277;-91
2021/01/23 10:12:29;;;;;;;;;1.00;1.00;;;;;;;;1487976;29;86546;-90
2021/01/23 10:13:14;;;;;;;;;3.00;1.00;;;;;;;;1487728;29;86770;-92
2021/01/23 10:13:59;;;;;;;;;1.00;1.00;;;;;;;;1487854;29;87112;-91
2021/01/23 10:14:45;;;;;;;;;1.00;1.00;;;;;;;;1487695;29;87478;-91
2021/01/23 10:15:32;;;;;;;;;1.00;1.00;;;;;;;;1488330;29;87119;-91
2021/01/23 10:16:18;;;;;;;;;2.80;1.80;;;;;;;;1501503;29;86995;-92
2021/01/23 10:17:04;;;;;;;;;2.00;2.00;;;;;;;;1501700;29;87031;-92
2021/01/23 10:17:49;;;;;;;;;1.00;1.00;;;;;;;;1499314;29;87067;-91
2021/01/23 10:18:35;;;;;;;;;1.00;1.00;;;;;;;;1501228;29;87065;-92
2021/01/23 10:19:24;;;;;;;;;1.00;1.00;;;;;;;;1501497;29;86935;-91
2021/01/23 10:20:09;;;;;;;;;1.00;1.00;;;;;;;;1499471;29;86107;-91
2021/01/23 10:20:55;;;;;;;;;2.50;2.00;;;;;;;;1501641;29;87485;-91
2021/01/23 10:21:42;;;;;;;;;2.25;2.25;;;;;;;;1496080;29;87001;-91
2021/01/23 10:22:28;;;;;;;;;0.00;0.00;;;;;;;;1495645;29;88597;-91
2021/01/23 10:23:13;;;;;;;;;2.00;2.00;;;;;;;;1497641;29;90930;-93
2021/01/23 10:23:59;;;;;;;;;0.50;0.50;;;;;;;;1499463;29;87551;-91
2021/01/23 10:24:44;;;;;;;;;0.50;0.50;;;;;;;;1495517;29;88029;-91
2021/01/23 10:25:30;;;;;;;;;2.00;2.00;;;;;;;;1494960;29;88686;-91
2021/01/23 10:26:15;;;;;;;;;1.00;1.00;;;;;;;;1495360;29;90229;-92
2021/01/23 10:27:00;;;;;;;;;1.00;1.00;;;;;;;;1495574;29;90193;-93
2021/01/23 10:27:46;;;;;;;;;2.50;1.25;;;;;;;;1507554;28;88799;-92
2021/01/23 10:28:31;;;;;;;;;1.00;1.00;;;;;;;;1513198;28;88086;-92
2021/01/23 10:29:16;;;;;;;;;3.00;2.75;;;;;;;;1510759;28;89494;-92
2021/01/23 10:30:03;;;;;;;;;1.00;1.00;;;;;;;;1526512;28;88728;-92
2021/01/23 10:30:48;;;;;;;;;2.00;2.00;;;;;;;;1528910;28;91603;-93
2021/01/23 10:31:33;;;;;;;;;1.00;1.00;;;;;;;;1528813;28;89461;-93
2021/01/23 10:32:18;;;;;;;;;1.00;1.00;;;;;;;;1522879;28;90254;-91
2021/01/23 10:33:04;;;;;;;;;1.75;1.00;;;;;;;;1518837;28;89917;-92
2021/01/23 10:33:49;;;;;;;;;1.00;1.00;;;;;;;;1524963;28;87791;-93
2021/01/23 10:34:34;;;;;;;;;1.00;1.00;;;;;;;;1529084;28;90346;-91
2021/01/23 10:35:19;;;;;;;;;0.00;0.00;;;;;;;;1522979;28;88807;-92
2021/01/23 10:36:07;;;;;;;;;0.50;0.50;;;;;;;;1524635;28;89426;-92
2021/01/23 10:36:53;;;;;;;;;1.80;1.80;;;;;;;;1525008;28;90268;-92
2021/01/23 10:37:38;;;;;;;;;0.00;0.00;;;;;;;;1522630;28;88518;-93
2021/01/23 10:38:23;;;;;;;;;1.75;1.75;;;;;;;;1524686;28;90669;-94
2021/01/23 10:39:29;;;;;;;;;1.00;1.00;;;;;;;;1579310;27;83451;-93
2021/01/23 10:40:16;;;;;;;;;1.00;1.00;;;;;;;;1566115;27;84375;-92
2021/01/23 10:41:01;;;;;;;;;1.00;1.00;;;;;;;;1557534;28;83492;-93
2021/01/23 10:41:47;;;;;;;;;0.50;0.50;;;;;;;;1549461;28;85730;-93
2021/01/23 10:42:32;;;;;;;;;2.00;2.00;;;;;;;;1555748;28;84514;-93
2021/01/23 10:43:17;;;;;;;;;1.25;1.25;;;;;;;;1553322;28;86064;-93
2021/01/23 10:44:03;;;;;;;;;3.50;2.50;;;;;;;;1555336;28;84415;-93
2021/01/23 10:44:48;;;;;;;;;1.00;1.00;;;;;;;;1555223;28;84982;-93
2021/01/23 10:45:33;;;;;;;;;1.00;1.00;;;;;;;;1559556;28;85926;-92
2021/01/23 10:46:21;;;;;;;;;0.75;0.75;;;;;;;;1553592;28;85113;-94
2021/01/23 10:47:07;;;;;;;;;1.60;1.60;;;;;;;;1549250;28;84723;-92
2021/01/23 10:47:52;;;;;;;;;1.00;1.00;;;;;;;;1549709;28;86165;-93
2021/01/23 10:48:37;;;;;;;;;0.25;0.25;;;;;;;;1555286;28;85765;-93
2021/01/23 10:49:25;;;;;;;;;1.00;1.00;;;;;;;;1553071;28;85858;-93
2021/01/23 10:50:10;;;;;;;;;2.40;1.00;;;;;;;;1549482;28;83844;-93
2021/01/23 10:50:56;;;;;;;;;1.00;1.00;;;;;;;;1547209;28;83517;-92
2021/01/23 10:51:41;;;;;;;;;0.25;0.25;;;;;;;;1542887;28;86280;-93
2021/01/23 10:52:26;;;;;;;;;1.25;1.25;;;;;;;;1547169;28;83322;-92
2021/01/23 10:53:11;;;;;;;;;1.00;1.00;;;;;;;;1551033;28;86446;-92
2021/01/23 10:53:57;;;;;;;;;0.75;0.75;;;;;;;;1553436;28;86118;-92
2021/01/23 10:54:42;;;;;;;;;1.00;1.00;;;;;;;;1553287;28;83555;-91
2021/01/23 10:55:27;;;;;;;;;1.50;0.75;;;;;;;;1549171;28;83826;-92
2021/01/23 10:56:15;;;;;;;;;1.00;1.00;;;;;;;;1553261;28;86864;-92
2021/01/23 10:57:02;;;;;;;;;1.00;1.00;;;;;;;;1549613;28;84792;-95
2021/01/23 10:57:48;;;;;;;;;1.00;1.00;;;;;;;;1553625;28;83988;-93
2021/01/23 10:58:35;;;;;;;;;3.00;1.00;;;;;;;;1552817;28;83557;-93
2021/01/23 10:59:20;;;;;;;;;1.00;1.00;;;;;;;;1553342;28;83675;-93
2021/01/23 11:00:06;;;;;;;;;0.50;0.50;;;;;;;;1549769;28;85815;-94
2021/01/23 11:00:52;;;;;;;;;0.00;0.00;;;;;;;;1558868;28;83546;-95
2021/01/23 11:01:40;;;;;;;;;1.50;1.00;;;;;;;;1554535;28;83991;-95
2021/01/23 11:02:25;;;;;;;;;2.00;2.00;;;;;;;;1550496;28;84218;-94
2021/01/23 11:03:10;;;;;;;;;1.00;1.00;;;;;;;;1549650;28;84456;-94
2021/01/23 11:03:56;;;;;;;;;1.00;1.00;;;;;;;;1555493;28;84155;-94
2021/01/23 11:04:41;;;;;;;;;0.50;0.25;;;;;;;;1553551;28;85799;-94
2021/01/23 11:05:26;;;;;;;;;0.75;0.75;;;;;;;;1549766;28;85491;-93
2021/01/23 11:06:12;;;;;;;;;1.00;1.00;;;;;;;;1549569;28;86777;-93
2021/01/23 11:06:59;;;;;;;;;1.50;1.50;;;;;;;;1556109;28;84373;-93
2021/01/23 11:07:44;;;;;;;;;1.20;1.20;;;;;;;;1555912;28;84185;-94
2021/01/23 11:08:39;;;;;;;;;0.75;0.75;;;;;;;;1554425;28;82982;-93
2021/01/23 11:09:25;;;;;;;;;2.80;1.00;;;;;;;;1553046;28;84452;-89
2021/01/23 11:10:11;;;;;;;;;1.50;1.50;;;;;;;;1558212;28;85139;-92
2021/01/23 11:10:59;;;;;;;;;2.00;1.00;;;;;;;;1554424;28;86782;-92
2021/01/23 11:11:45;;;;;;;;;3.00;1.00;;;;;;;;1549949;28;84204;-93
2021/01/23 11:12:30;;;;;;;;;2.00;0.50;;;;;;;;1549426;28;86806;-93
2021/01/23 11:13:15;;;;;;;;;1.75;1.75;;;;;;;;1555649;28;83827;-94
2021/01/23 11:14:00;;;;;;;;;0.00;0.00;;;;;;;;1553653;28;84051;-95
2021/01/23 11:14:46;;;;;;;;;0.50;0.50;;;;;;;;1549275;28;85740;-92
2021/01/23 11:15:33;;;;;;;;;0.50;0.50;;;;;;;;1549132;28;87424;-93
2021/01/23 11:16:21;;;;;;;;;1.00;1.00;;;;;;;;1556226;28;85539;-94
2021/01/23 11:17:09;;;;;;;;;1.60;0.60;;;;;;;;1553577;28;86674;-94
2021/01/23 11:17:55;;;;;;;;;1.00;1.00;;;;;;;;1550255;28;84457;-92
2021/01/23 11:18:40;;;;;;;;;1.50;1.50;;;;;;;;1549606;28;85594;-94
2021/01/23 11:19:25;;;;;;;;;0.75;0.75;;;;;;;;1555443;28;87104;-92
2021/01/23 11:20:11;;;;;;;;;0.00;0.00;;;;;;;;1553067;28;86703;-93
2021/01/23 11:20:56;;;;;;;;;1.00;1.00;;;;;;;;1549095;28;85576;-93
2021/01/23 11:21:49;;;;;;;;;0.25;0.25;;;;;;;;1549317;28;84339;-93
2021/01/23 11:22:34;;;;;;;;;1.00;1.00;;;;;;;;1556767;28;84679;-89
2021/01/23 11:23:19;;;;;;;;;1.25;0.50;;;;;;;;1555563;28;83514;-91
2021/01/23 11:24:05;;;;;;;;;0.00;0.00;;;;;;;;1549017;28;83535;-92
2021/01/23 11:24:50;;;;;;;;;0.00;0.00;;;;;;;;1549367;28;83567;-93
2021/01/23 11:25:35;;;;;;;;;1.00;1.00;;;;;;;;1555505;28;83529;-93
2021/01/23 11:26:21;;;;;;;;;0.00;0.00;;;;;;;;1553302;28;84328;-94
2021/01/23 11:27:06;;;;;;;;;0.00;0.00;;;;;;;;1549075;28;83577;-93
2021/01/23 11:27:52;;;;;;;;;0.00;0.00;;;;;;;;1549388;28;83511;-93
2021/01/23 11:28:39;;;;;;;;;0.75;0.00;;;;;;;;1549365;28;83081;-95
2021/01/23 11:29:24;;;;;;;;;0.00;0.00;;;;;;;;1551274;28;83556;-93
2021/01/23 11:30:18;;;;;;;;;0.00;0.00;;;;;;;;1549588;28;83607;-94
2021/01/23 11:31:04;;;;;;;;;0.00;0.00;;;;;;;;1552436;28;83352;-93
2021/01/23 11:31:57;;;;;;;;;0.00;0.00;;;;;;;;1554752;28;83395;-95
2021/01/23 11:32:44;;;;;;;;;0.00;0.00;;;;;;;;1552988;28;82941;-93
2021/01/23 11:33:40;;;;;;;;;0.00;0.00;;;;;;;;1553288;28;83179;-93
2021/01/23 11:34:25;;;;;;;;;0.00;0.00;;;;;;;;1555542;28;83549;-93
2021/01/23 11:35:13;;;;;;;;;0.00;0.00;;;;;;;;1554948;28;83523;-93
2021/01/23 11:35:58;;;;;;;;;0.00;0.00;;;;;;;;1559738;28;82761;-92
2021/01/23 11:36:44;;;;;;;;;0.00;0.00;;;;;;;;1555809;28;83543;-92
2021/01/23 11:37:34;;;;;;;;;0.00;0.00;;;;;;;;1553742;28;83061;-93
2021/01/23 11:38:20;;;;;;;;;0.40;0.00;;;;;;;;1556627;28;83585;-91
2021/01/23 11:39:06;;;;;;;;;0.00;0.00;;;;;;;;1552830;28;82779;-94
2021/01/23 11:39:51;;;;;;;;;1.00;1.00;;;;;;;;1551889;28;83090;-90
2021/01/23 11:40:36;;;;;;;;;0.50;0.50;;;;;;;;1547094;28;83173;-92
2021/01/23 11:41:21;;;;;;;;;0.00;0.00;;;;;;;;1549196;28;82619;-92
2021/01/23 11:42:07;;;;;;;;;0.50;0.00;;;;;;;;1553289;28;83090;-93
2021/01/23 11:42:52;;;;;;;;;0.00;0.00;;;;;;;;1553169;28;82875;-92
2021/01/23 11:43:37;;;;;;;;;0.00;0.00;;;;;;;;1553738;28;83172;-91
2021/01/23 11:44:23;;;;;;;;;0.00;0.00;;;;;;;;1555836;28;83557;-92
2021/01/23 11:45:11;;;;;;;;;0.00;0.00;;;;;;;;1559976;28;83763;-92
2021/01/23 11:45:56;;;;;;;;;0.00;0.00;;;;;;;;1553329;28;83405;-92
2021/01/23 11:46:41;;;;;;;;;1.25;0.00;;;;;;;;1552859;28;85019;-94
2021/01/23 11:47:27;;;;;;;;;0.75;0.75;;;;;;;;1553280;28;84043;-92
2021/01/23 11:48:12;;;;;;;;;0.00;0.00;;;;;;;;1555049;28;83677;-91
2021/01/23 11:48:57;;;;;;;;;0.00;0.00;;;;;;;;1557355;28;85080;-93
2021/01/23 11:49:43;;;;;;;;;0.00;0.00;;;;;;;;1553132;28;84728;-91
2021/01/23 11:50:30;;;;;;;;;0.00;0.00;;;;;;;;1550816;28;85582;-90
2021/01/23 11:51:16;;;;;;;;;1.00;1.00;;;;;;;;1549070;28;84082;-91
2021/01/23 11:52:03;;;;;;;;;1.00;1.00;;;;;;;;1551094;28;85827;-90
2021/01/23 11:52:48;;;;;;;;;0.00;0.00;;;;;;;;1552663;28;83613;-90
2021/01/23 11:53:33;;;;;;;;;0.50;0.50;;;;;;;;1542732;28;84666;-90
2021/01/23 11:54:18;;;;;;;;;0.75;0.75;;;;;;;;1543190;28;83666;-91
2021/01/23 11:55:04;;;;;;;;;0.00;0.00;;;;;;;;1545361;28;85051;-91
2021/01/23 11:55:49;;;;;;;;;0.00;0.00;;;;;;;;1550199;28;85167;-90
2021/01/23 11:56:35;;;;;;;;;0.25;0.25;;;;;;;;1543183;28;83658;-90
2021/01/23 11:57:20;;;;;;;;;0.50;0.50;;;;;;;;1543658;28;86220;-91
2021/01/23 11:58:05;;;;;;;;;0.00;0.00;;;;;;;;1550859;28;85788;-90
2021/01/23 11:58:51;;;;;;;;;2.00;0.00;;;;;;;;1549740;28;85152;-91
2021/01/23 11:59:37;;;;;;;;;0.00;0.00;;;;;;;;1552772;28;85079;-90
2021/01/23 12:00:23;;;;;;;;;0.00;0.00;;;;;;;;1557470;28;83402;-89
2021/01/23 12:01:08;;;;;;;;;0.00;0.00;;;;;;;;1560842;28;84957;-89
2021/01/23 12:01:53;;;;;;;;;0.00;0.00;;;;;;;;1554485;28;84711;-88
2021/01/23 12:02:38;;;;;;;;;1.75;1.00;;;;;;;;1556031;28;83846;-88
2021/01/23 12:03:24;;;;;;;;;4.00;2.50;;;;;;;;1550020;28;83694;-88
2021/01/23 12:04:09;;;;;;;;;2.00;2.00;;;;;;;;1554337;28;85043;-90
2021/01/23 12:04:57;;;;;;;;;2.00;2.00;;;;;;;;1552871;28;86291;-89
2021/01/23 12:05:42;;;;;;;;;3.00;3.00;;;;;;;;1550611;28;83935;-89
2021/01/23 12:06:29;;;;;;;;;2.00;2.00;;;;;;;;1553606;28;84810;-89
2021/01/23 12:07:16;;;;;;;;;1.20;1.00;;;;;;;;1549677;28;85418;-90
2021/01/23 12:08:01;;;;;;;;;0.00;0.00;;;;;;;;1542993;28;86396;-91
2021/01/23 12:08:47;;;;;;;;;0.25;0.25;;;;;;;;1538720;28;86738;-90
2021/01/23 12:09:32;;;;;;;;;0.00;0.00;;;;;;;;1536722;28;86922;-90
2021/01/23 12:10:18;;;;;;;;;0.00;0.00;;;;;;;;1532659;28;84173;-91
2021/01/23 12:11:03;;;;;;;;;1.00;0.00;;;;;;;;1532573;28;85241;-91
2021/01/23 12:11:49;;;;;;;;;1.00;1.00;;;;;;;;1532410;28;84735;-92
2021/01/23 12:12:34;;;;;;;;;2.00;0.75;;;;;;;;1534216;28;85814;-92
2021/01/23 12:13:19;;;;;;;;;1.00;1.00;;;;;;;;1542373;28;86680;-91
2021/01/23 12:14:04;;;;;;;;;0.00;0.00;;;;;;;;1544393;28;85618;-89
2021/01/23 12:14:50;;;;;;;;;0.00;0.00;;;;;;;;1548619;28;85501;-89
2021/01/23 12:15:35;;;;;;;;;0.50;0.50;;;;;;;;1548419;28;87379;-92
2021/01/23 12:16:20;;;;;;;;;0.00;0.00;;;;;;;;1542544;28;85246;-91
2021/01/23 12:17:06;;;;;;;;;1.00;1.00;;;;;;;;1544246;28;86697;-90
2021/01/23 12:17:52;;;;;;;;;0.00;0.00;;;;;;;;1550511;28;86244;-92
2021/01/23 12:18:38;;;;;;;;;0.00;0.00;;;;;;;;1552557;28;85546;-92